Meteo Giornale » Osservazioni meteo Stati Uniti (USA) » Santa Rosa Sonoma
ore: 12:53 - Osservazioni Meteo Santa Rosa Sonoma
Lat. 38° 30' N Lon. 122° 49' W Alt. 38 metri s.l.m.
21 °C
Molto Nuvoloso
Temp. 24 Ore
11 °C
24 °C
Sud-Ovest
13 Km/h
Dew point 9 °C
Umidità 46 %
Visibilità 10 Km
Il sole sorge alle ore 06:40
Il sole tramonta alle ore 19:41
| Data e Ora | Cielo e Fenomeni | T °C | DP °C | Um. % | Pres. hPa | Vis. km | Vento km/h | |
|---|---|---|---|---|---|---|---|---|
| Oggi h: 12:53 | Molto Nuvoloso | 21 | 9 | 46 | 1016 | 10 | SO 13 | |
| Oggi h: 11:53 | Molto Nuvoloso | 19 | 11 | 59 | 1016 | 10 | SO 11.1 | |
| Oggi h: 10:53 | Coperto | 19 | 12 | 63 | 1016 | 10 | S 11.1 | |
| Oggi h: 09:53 | Coperto | 18 | 12 | 67 | 1015 | 10 | O 7.4 | |
| Oggi h: 08:53 | Coperto | 17 | 13 | 77 | 1015 | 10 | O/SO 11.1 | |
| Oggi h: 07:53 | Molto Nuvoloso | 15 | 12 | 82 | 1015 | 10 | N 0 | |
| Oggi h: 06:53 | Coperto | 13 | 12 | 93 | 1014 | 10 | N 0 | |
| Oggi h: 05:53 | Coperto | 13 | 12 | 93 | 1013 | 10 | N 0 | |
| Oggi h: 04:53 | Coperto | 13 | 12 | 93 | 1013 | 10 | N 5.5 | |
| Oggi h: 03:53 | Coperto | 12 | 11 | 93 | 1014 | 10 | N 0 | |
| Oggi h: 03:32 | Coperto | 12 | 11 | 93 | 1014 | 10 | N 0 | |
| Oggi h: 02:53 | Molto Nuvoloso | 12 | 11 | 93 | 1013 | 14 | N 0 | |
| Oggi h: 02:50 | Molto Nuvoloso | 11 | 11 | 100 | 1013 | 14 | N 5.5 | |
| Oggi h: 01:53 | Sereno | 12 | 11 | 93 | 1013 | 10 | N 5.5 | |
| Oggi h: 00:53 | Sereno | 12 | 11 | 93 | 1013 | 10 | N 5.5 | |
| Ieri h: 23:53 | Sereno | 13 | 12 | 93 | 1012 | 10 | N 5.5 | |
| Ieri h: 22:53 | Sereno | 14 | 12 | 87 | 1013 | 10 | N 5.5 | |
| Ieri h: 21:53 | Sereno | 14 | 12 | 87 | 1013 | 10 | N 5.5 | |
| Ieri h: 20:53 | Sereno | 15 | 12 | 82 | 1012 | 10 | S/SE 9.3 | |
| Ieri h: 19:53 | Sereno | 16 | 12 | 77 | 1011 | 10 | S 9.3 | |
| Ieri h: 18:53 | Sereno | 18 | 12 | 67 | 1011 | 10 | S/SO 16.7 | |
| Ieri h: 17:53 | Sereno | 21 | 12 | 56 | 1011 | 10 | S/SO 16.7 | |
| Ieri h: 16:53 | Sereno | 22 | 12 | 53 | 1011 | 10 | SO 16.7 | |
| Ieri h: 15:53 | Sereno | 23 | 12 | 49 | 1011 | 10 | S/SO 14.8 | |
| Ieri h: 14:53 | Sereno | 24 | 12 | 47 | 1012 | 10 | SE 14.8 | |
| Ieri h: 13:53 | Sereno | 22 | 12 | 53 | 1012 | 10 | E/SE 11.1 | |



